createdAt,value
2018-07-04T00:00:45.073Z,1016.47
2018-07-04T00:01:45.101Z,1016.51
2018-07-04T00:02:45.127Z,1016.50
2018-07-04T00:03:45.147Z,1016.52
2018-07-04T00:04:45.176Z,1016.55
2018-07-04T00:05:45.195Z,1016.55
2018-07-04T00:06:45.227Z,1016.51
2018-07-04T00:07:45.254Z,1016.57
2018-07-04T00:08:45.278Z,1016.54
2018-07-04T00:09:45.307Z,1016.60
2018-07-04T00:10:45.332Z,1016.60
2018-07-04T00:11:45.355Z,1016.58
2018-07-04T00:12:45.384Z,1016.58
2018-07-04T00:13:45.412Z,1016.58
2018-07-04T00:14:45.434Z,1016.55
2018-07-04T00:15:45.459Z,1016.59
2018-07-04T00:16:45.486Z,1016.60
2018-07-04T00:17:45.528Z,1016.55
2018-07-04T00:18:45.536Z,1016.59
2018-07-04T00:19:45.568Z,1016.59
2018-07-04T00:20:45.594Z,1016.57
2018-07-04T00:21:48.443Z,1016.61
2018-07-04T00:22:49.479Z,1016.62
2018-07-04T00:24:38.241Z,1016.62
2018-07-04T00:25:38.269Z,1016.60
2018-07-04T00:26:38.293Z,1016.60
2018-07-04T00:27:38.324Z,1016.61
2018-07-04T00:28:38.344Z,1016.59
2018-07-04T00:29:38.367Z,1016.64
2018-07-04T00:30:38.400Z,1016.63
2018-07-04T00:31:38.427Z,1016.63
2018-07-04T00:32:38.449Z,1016.67
2018-07-04T00:33:38.477Z,1016.65
2018-07-04T00:35:38.521Z,1016.65
2018-07-04T00:36:38.549Z,1016.66
2018-07-04T00:37:38.573Z,1016.67
2018-07-04T00:38:38.595Z,1016.65
2018-07-04T00:39:38.627Z,1016.62
2018-07-04T00:40:38.647Z,1016.56
2018-07-04T00:41:38.671Z,1016.60
2018-07-04T00:42:38.697Z,1016.57
2018-07-04T00:43:38.724Z,1016.60
2018-07-04T00:44:38.751Z,1016.58
2018-07-04T00:45:38.775Z,1016.57
2018-07-04T00:46:38.809Z,1016.59
2018-07-04T00:47:38.823Z,1016.55
2018-07-04T00:48:38.857Z,1016.54
2018-07-04T00:49:38.877Z,1016.54
2018-07-04T00:50:38.907Z,1016.54
2018-07-04T00:51:38.933Z,1016.59
2018-07-04T00:52:38.967Z,1016.53
2018-07-04T00:53:38.983Z,1016.56
2018-07-04T00:54:39.006Z,1016.57
2018-07-04T00:55:39.033Z,1016.58
2018-07-04T00:56:39.061Z,1016.56
2018-07-04T00:57:39.085Z,1016.55
2018-07-04T00:59:39.138Z,1016.60
2018-07-04T01:00:39.159Z,1016.61
2018-07-04T01:01:39.208Z,1016.62
2018-07-04T01:02:39.217Z,1016.62
2018-07-04T01:03:39.240Z,1016.64
2018-07-04T01:04:39.267Z,1016.68
2018-07-04T01:05:39.294Z,1016.65
2018-07-04T01:06:39.312Z,1016.66
2018-07-04T01:07:39.340Z,1016.68
2018-07-04T01:08:39.372Z,1016.67
2018-07-04T01:09:39.387Z,1016.67
2018-07-04T01:10:39.425Z,1016.65
2018-07-04T01:11:39.449Z,1016.68
2018-07-04T01:12:39.467Z,1016.68
2018-07-04T01:13:39.493Z,1016.69
2018-07-04T01:14:39.527Z,1016.72
2018-07-04T01:15:39.548Z,1016.73
2018-07-04T01:16:39.578Z,1016.71
2018-07-04T01:17:39.596Z,1016.72
2018-07-04T01:18:39.624Z,1016.73
2018-07-04T01:19:39.646Z,1016.70
2018-07-04T01:20:39.674Z,1016.72
2018-07-04T01:21:39.698Z,1016.71
2018-07-04T01:22:39.732Z,1016.69
2018-07-04T01:23:39.748Z,1016.68
2018-07-04T01:24:39.780Z,1016.65
2018-07-04T01:25:39.800Z,1016.63
2018-07-04T01:26:39.828Z,1016.65
2018-07-04T01:27:39.854Z,1016.64
2018-07-04T01:28:39.879Z,1016.65
2018-07-04T01:29:39.904Z,1016.68
2018-07-04T01:30:39.932Z,1016.63
2018-07-04T01:31:39.964Z,1016.63
2018-07-04T01:32:39.982Z,1016.66
2018-07-04T01:33:40.010Z,1016.64
2018-07-04T01:34:40.036Z,1016.62
2018-07-04T01:35:40.063Z,1016.64
2018-07-04T01:36:40.085Z,1016.64
2018-07-04T01:37:40.117Z,1016.59
2018-07-04T01:38:40.132Z,1016.59
2018-07-04T01:39:40.158Z,1016.60
2018-07-04T01:40:40.189Z,1016.58
2018-07-04T01:41:40.212Z,1016.57
2018-07-04T01:42:40.240Z,1016.57
2018-07-04T01:43:40.262Z,1016.55
2018-07-04T01:44:40.292Z,1016.58
2018-07-04T01:45:40.314Z,1016.57
2018-07-04T01:46:40.347Z,1016.55
2018-07-04T01:47:40.362Z,1016.53
2018-07-04T01:48:40.390Z,1016.54
2018-07-04T01:49:40.422Z,1016.54
2018-07-04T01:50:40.444Z,1016.56
2018-07-04T01:51:40.466Z,1016.56
2018-07-04T01:52:40.492Z,1016.55
2018-07-04T01:53:40.517Z,1016.52
2018-07-04T01:54:40.546Z,1016.58
2018-07-04T01:55:40.574Z,1016.53
2018-07-04T01:56:40.595Z,1016.56
2018-07-04T01:57:40.624Z,1016.58
2018-07-04T01:58:40.646Z,1016.54
2018-07-04T01:59:40.672Z,1016.58
2018-07-04T02:00:40.695Z,1016.57
2018-07-04T02:01:40.728Z,1016.52
2018-07-04T02:02:40.746Z,1016.54
2018-07-04T02:03:40.773Z,1016.52
2018-07-04T02:04:40.798Z,1016.51
2018-07-04T02:05:40.825Z,1016.51
2018-07-04T02:06:40.846Z,1016.54
2018-07-04T02:07:40.903Z,1016.56
2018-07-04T02:08:40.901Z,1016.51
2018-07-04T02:09:40.926Z,1016.52
2018-07-04T02:10:40.944Z,1016.53
2018-07-04T02:11:40.982Z,1016.49
2018-07-04T02:12:41.005Z,1016.54
2018-07-04T02:13:41.022Z,1016.55
2018-07-04T02:14:41.048Z,1016.53
2018-07-04T02:15:41.078Z,1016.51
2018-07-04T02:16:41.099Z,1016.51
2018-07-04T02:17:41.132Z,1016.55
2018-07-04T02:18:41.156Z,1016.56
2018-07-04T02:19:41.173Z,1016.54
2018-07-04T02:20:41.208Z,1016.57
2018-07-04T02:21:41.224Z,1016.55
2018-07-04T02:22:41.256Z,1016.53
2018-07-04T02:23:41.281Z,1016.56
2018-07-04T02:24:41.309Z,1016.53
2018-07-04T02:25:41.330Z,1016.52
2018-07-04T02:26:41.357Z,1016.53
2018-07-04T02:27:41.380Z,1016.51
2018-07-04T02:28:41.407Z,1016.51
2018-07-04T02:29:41.427Z,1016.53
2018-07-04T02:30:41.458Z,1016.50
2018-07-04T02:31:41.481Z,1016.48
2018-07-04T02:32:41.507Z,1016.48
2018-07-04T02:33:41.532Z,1016.49
2018-07-04T02:34:41.561Z,1016.50
2018-07-04T02:35:41.588Z,1016.52
2018-07-04T02:36:41.608Z,1016.50
2018-07-04T02:37:41.637Z,1016.54
2018-07-04T02:38:41.653Z,1016.54
2018-07-04T02:39:41.683Z,1016.53
2018-07-04T02:40:41.711Z,1016.53
2018-07-04T02:41:41.735Z,1016.57
2018-07-04T02:42:41.761Z,1016.58
2018-07-04T02:43:41.784Z,1016.59
2018-07-04T02:44:41.819Z,1016.58
2018-07-04T02:45:41.837Z,1016.60
2018-07-04T02:46:41.859Z,1016.53
2018-07-04T02:47:41.891Z,1016.51
2018-07-04T02:48:41.913Z,1016.52
2018-07-04T02:49:41.940Z,1016.52
2018-07-04T02:50:41.960Z,1016.51
2018-07-04T02:51:41.992Z,1016.49
2018-07-04T02:52:42.012Z,1016.48
2018-07-04T02:53:42.041Z,1016.48
2018-07-04T02:54:42.059Z,1016.48
2018-07-04T02:55:42.092Z,1016.51
2018-07-04T02:56:42.113Z,1016.50
2018-07-04T02:57:42.139Z,1016.47
2018-07-04T02:58:42.160Z,1016.54
2018-07-04T02:59:42.191Z,1016.52
2018-07-04T03:00:42.211Z,1016.51
2018-07-04T03:01:45.473Z,1016.51
2018-07-04T03:02:44.886Z,1016.49
2018-07-04T03:03:44.914Z,1016.46
2018-07-04T03:04:42.307Z,1016.47
2018-07-04T03:05:42.336Z,1016.48
2018-07-04T03:06:42.360Z,1016.50
2018-07-04T03:07:42.385Z,1016.49
2018-07-04T03:08:42.412Z,1016.52
2018-07-04T03:09:42.435Z,1016.53
2018-07-04T03:10:42.457Z,1016.52
2018-07-04T03:11:42.492Z,1016.55
2018-07-04T03:12:42.510Z,1016.51
2018-07-04T03:13:42.539Z,1016.49
2018-07-04T03:14:42.561Z,1016.48
2018-07-04T03:15:42.589Z,1016.49
2018-07-04T03:16:42.608Z,1016.47
2018-07-04T03:17:42.643Z,1016.48
2018-07-04T03:18:42.660Z,1016.50
2018-07-04T03:19:42.688Z,1016.45
2018-07-04T03:20:42.710Z,1016.53
2018-07-04T03:21:42.736Z,1016.50
2018-07-04T03:22:42.758Z,1016.46
2018-07-04T03:23:42.791Z,1016.47
2018-07-04T03:24:42.813Z,1016.50
2018-07-04T03:25:42.833Z,1016.49
2018-07-04T03:26:42.869Z,1016.49
2018-07-04T03:27:42.885Z,1016.48
2018-07-04T03:28:42.913Z,1016.48
2018-07-04T03:29:42.932Z,1016.49
2018-07-04T03:30:42.962Z,1016.51
2018-07-04T03:31:42.985Z,1016.48
2018-07-04T03:32:43.012Z,1016.46
2018-07-04T03:33:43.036Z,1016.45
2018-07-04T03:34:43.065Z,1016.42
2018-07-04T03:35:43.088Z,1016.42
2018-07-04T03:36:43.112Z,1016.40
2018-07-04T03:37:43.139Z,1016.44
2018-07-04T03:38:43.163Z,1016.42
2018-07-04T03:39:43.190Z,1016.41
2018-07-04T03:40:43.213Z,1016.43
2018-07-04T03:41:43.238Z,1016.44
2018-07-04T03:42:43.262Z,1016.42
2018-07-04T03:43:43.286Z,1016.48
2018-07-04T03:44:43.320Z,1016.46
2018-07-04T03:45:43.338Z,1016.49
2018-07-04T03:46:43.362Z,1016.44
2018-07-04T03:47:43.392Z,1016.49
2018-07-04T03:48:43.420Z,1016.43
2018-07-04T03:49:43.471Z,1016.45
2018-07-04T03:50:43.468Z,1016.46
2018-07-04T03:51:43.495Z,1016.44
2018-07-04T03:52:43.516Z,1016.43
2018-07-04T03:53:43.538Z,1016.43
2018-07-04T03:54:43.562Z,1016.40
2018-07-04T03:55:43.592Z,1016.41
2018-07-04T03:56:43.620Z,1016.44
2018-07-04T03:57:43.637Z,1016.44
2018-07-04T03:58:43.666Z,1016.43
2018-07-04T03:59:43.688Z,1016.48
2018-07-04T04:00:43.718Z,1016.44
2018-07-04T04:01:43.740Z,1016.46
2018-07-04T04:02:43.774Z,1016.45
2018-07-04T04:03:43.790Z,1016.46
2018-07-04T04:04:43.821Z,1016.44
2018-07-04T04:05:43.842Z,1016.47
2018-07-04T04:06:43.866Z,1016.49
2018-07-04T04:07:43.894Z,1016.46
2018-07-04T04:08:43.920Z,1016.46
2018-07-04T04:09:43.942Z,1016.44
2018-07-04T04:10:43.966Z,1016.46
2018-07-04T04:11:43.987Z,1016.43
2018-07-04T04:12:44.016Z,1016.46
2018-07-04T04:13:44.044Z,1016.45
2018-07-04T04:14:44.068Z,1016.47
2018-07-04T04:15:44.096Z,1016.47
2018-07-04T04:16:44.118Z,1016.48
2018-07-04T04:17:44.146Z,1016.47
2018-07-04T04:18:44.167Z,1016.48
2018-07-04T04:19:44.224Z,1016.48
2018-07-04T04:20:44.222Z,1016.51
2018-07-04T04:21:44.242Z,1016.49
2018-07-04T04:22:44.272Z,1016.48
2018-07-04T04:23:44.292Z,1016.49
2018-07-04T04:24:44.320Z,1016.48
2018-07-04T04:25:44.344Z,1016.48
2018-07-04T04:26:44.366Z,1016.49
2018-07-04T04:27:44.400Z,1016.47
2018-07-04T04:28:44.422Z,1016.49
2018-07-04T04:29:44.444Z,1016.51
2018-07-04T04:30:44.472Z,1016.51
2018-07-04T04:31:44.498Z,1016.51
2018-07-04T04:32:44.523Z,1016.51
2018-07-04T04:33:44.567Z,1016.46
2018-07-04T04:34:44.574Z,1016.49
2018-07-04T04:35:44.608Z,1016.50
2018-07-04T04:36:44.617Z,1016.52
2018-07-04T04:37:44.652Z,1016.49
2018-07-04T04:38:44.680Z,1016.53
2018-07-04T04:39:44.696Z,1016.52
2018-07-04T04:40:44.736Z,1016.50
2018-07-04T04:41:44.743Z,1016.51
2018-07-04T04:42:44.772Z,1016.48
2018-07-04T04:43:44.801Z,1016.52
2018-07-04T04:44:44.829Z,1016.51
2018-07-04T04:45:44.854Z,1016.47
2018-07-04T04:46:44.875Z,1016.48
2018-07-04T04:47:44.901Z,1016.50
2018-07-04T04:48:44.926Z,1016.46
2018-07-04T04:49:44.949Z,1016.49
2018-07-04T04:50:44.977Z,1016.51
2018-07-04T04:51:44.996Z,1016.48
2018-07-04T04:52:45.032Z,1016.49
2018-07-04T04:53:45.050Z,1016.50
2018-07-04T04:54:45.120Z,1016.50
2018-07-04T04:55:45.104Z,1016.49
2018-07-04T04:56:45.129Z,1016.48
2018-07-04T04:57:45.149Z,1016.51
2018-07-04T04:58:45.175Z,1016.52
2018-07-04T04:59:45.200Z,1016.51
2018-07-04T05:00:45.227Z,1016.49
2018-07-04T05:01:45.252Z,1016.52
2018-07-04T05:02:45.275Z,1016.49
2018-07-04T05:03:45.306Z,1016.50
2018-07-04T05:04:45.335Z,1016.50
2018-07-04T05:05:45.357Z,1016.44
2018-07-04T05:06:45.378Z,1016.48
2018-07-04T05:07:45.404Z,1016.48
2018-07-04T05:08:45.433Z,1016.51
2018-07-04T05:09:45.451Z,1016.51
2018-07-04T05:10:45.479Z,1016.46
2018-07-04T05:11:45.507Z,1016.45
2018-07-04T05:12:45.537Z,1016.46
2018-07-04T05:13:45.558Z,1016.43
2018-07-04T05:14:45.580Z,1016.45
2018-07-04T05:15:45.699Z,1016.39
2018-07-04T05:16:45.632Z,1016.40
2018-07-04T05:17:45.655Z,1016.41
2018-07-04T05:18:45.681Z,1016.44
2018-07-04T05:19:45.707Z,1016.44
2018-07-04T05:20:45.744Z,1016.46
2018-07-04T05:21:45.752Z,1016.48
2018-07-04T05:22:45.806Z,1016.46
2018-07-04T05:23:45.804Z,1016.43
2018-07-04T05:24:45.837Z,1016.45
2018-07-04T05:25:45.860Z,1016.49
2018-07-04T05:26:45.888Z,1016.47
2018-07-04T05:27:45.916Z,1016.47
2018-07-04T05:28:45.945Z,1016.48
2018-07-04T05:29:45.964Z,1016.49
2018-07-04T05:30:45.988Z,1016.48
2018-07-04T05:31:46.010Z,1016.49
2018-07-04T05:32:46.037Z,1016.48
2018-07-04T05:33:46.060Z,1016.46
2018-07-04T05:34:46.088Z,1016.48
2018-07-04T05:35:46.114Z,1016.54
2018-07-04T05:36:46.134Z,1016.47
2018-07-04T05:37:46.166Z,1016.54
2018-07-04T05:38:46.188Z,1016.53
2018-07-04T05:39:46.215Z,1016.53
2018-07-04T05:40:46.250Z,1016.56
2018-07-04T05:41:46.266Z,1016.52
2018-07-04T05:42:46.294Z,1016.55
2018-07-04T05:43:46.314Z,1016.59
2018-07-04T05:44:46.341Z,1016.61
2018-07-04T05:45:46.370Z,1016.57
2018-07-04T05:46:46.395Z,1016.59
2018-07-04T05:47:46.420Z,1016.60
2018-07-04T05:48:46.445Z,1016.58
2018-07-04T05:49:46.469Z,1016.61
2018-07-04T05:50:46.499Z,1016.59
2018-07-04T05:51:46.515Z,1016.60
2018-07-04T05:52:46.547Z,1016.57
2018-07-04T05:53:46.570Z,1016.59
2018-07-04T05:54:46.594Z,1016.54
2018-07-04T05:55:46.616Z,1016.58
2018-07-04T05:56:46.696Z,1016.58
2018-07-04T05:57:46.676Z,1016.61
2018-07-04T05:58:46.695Z,1016.60
2018-07-04T05:59:46.723Z,1016.58
2018-07-04T06:00:46.745Z,1016.60
2018-07-04T06:01:46.777Z,1016.57
2018-07-04T06:02:46.855Z,1016.54
2018-07-04T06:03:46.824Z,1016.55
2018-07-04T06:04:46.851Z,1016.54
2018-07-04T06:05:46.878Z,1016.57
2018-07-04T06:06:46.904Z,1016.52
2018-07-04T06:07:46.926Z,1016.52
2018-07-04T06:08:46.955Z,1016.55
2018-07-04T06:09:46.982Z,1016.56
2018-07-04T06:10:47.004Z,1016.57
2018-07-04T06:11:47.028Z,1016.56
2018-07-04T06:12:47.049Z,1016.59
2018-07-04T06:13:47.079Z,1016.52
2018-07-04T06:14:47.104Z,1016.51
2018-07-04T06:15:47.137Z,1016.51
2018-07-04T06:16:47.155Z,1016.49
2018-07-04T06:17:47.182Z,1016.45
2018-07-04T06:18:47.265Z,1016.48
2018-07-04T06:19:47.235Z,1016.47
2018-07-04T06:20:47.263Z,1016.51
2018-07-04T06:21:47.282Z,1016.50
2018-07-04T06:22:47.314Z,1016.45
2018-07-04T06:23:47.333Z,1016.50
2018-07-04T06:24:47.363Z,1016.53
2018-07-04T06:25:47.382Z,1016.54
2018-07-04T06:26:47.413Z,1016.54
2018-07-04T06:27:47.434Z,1016.55
2018-07-04T06:28:47.462Z,1016.55
2018-07-04T06:29:47.491Z,1016.53
2018-07-04T06:30:47.517Z,1016.56
2018-07-04T06:31:47.536Z,1016.56
2018-07-04T06:32:47.565Z,1016.53
2018-07-04T06:33:47.587Z,1016.51
2018-07-04T06:34:47.618Z,1016.52
2018-07-04T06:35:47.642Z,1016.49
2018-07-04T06:36:47.668Z,1016.49
2018-07-04T06:37:47.701Z,1016.50
2018-07-04T06:38:47.716Z,1016.47
2018-07-04T06:39:47.743Z,1016.46
2018-07-04T06:40:47.785Z,1016.45
2018-07-04T06:41:47.794Z,1016.42
2018-07-04T06:42:47.820Z,1016.41
2018-07-04T06:43:47.847Z,1016.45
2018-07-04T06:44:47.873Z,1016.44
2018-07-04T06:45:47.898Z,1016.40
2018-07-04T06:46:47.926Z,1016.43
2018-07-04T06:47:47.946Z,1016.41
2018-07-04T06:48:48.025Z,1016.42
2018-07-04T06:49:48.004Z,1016.40
2018-07-04T06:50:48.027Z,1016.41
2018-07-04T06:51:48.050Z,1016.37
2018-07-04T06:52:48.084Z,1016.42
2018-07-04T06:53:48.104Z,1016.41
2018-07-04T06:54:48.138Z,1016.42
2018-07-04T06:55:48.164Z,1016.47
2018-07-04T06:56:48.185Z,1016.49
2018-07-04T06:57:48.204Z,1016.47
2018-07-04T06:58:48.263Z,1016.45
2018-07-04T06:59:48.262Z,1016.40
2018-07-04T07:00:48.280Z,1016.44
2018-07-04T07:01:48.318Z,1016.43
2018-07-04T07:02:48.332Z,1016.43
2018-07-04T07:03:48.361Z,1016.43
2018-07-04T07:04:48.391Z,1016.41
2018-07-04T07:05:48.416Z,1016.38
2018-07-04T07:06:48.446Z,1016.41
2018-07-04T07:07:48.461Z,1016.37
2018-07-04T07:08:48.492Z,1016.33
2018-07-04T07:09:48.518Z,1016.36
2018-07-04T07:10:48.540Z,1016.36
2018-07-04T07:11:48.570Z,1016.37
2018-07-04T07:12:48.598Z,1016.30
2018-07-04T07:13:48.625Z,1016.31
2018-07-04T07:14:48.646Z,1016.30
2018-07-04T07:15:48.677Z,1016.34
2018-07-04T07:16:48.698Z,1016.32
2018-07-04T07:17:48.722Z,1016.34
2018-07-04T07:18:48.746Z,1016.36
2018-07-04T07:19:48.774Z,1016.34
2018-07-04T07:20:48.800Z,1016.34
2018-07-04T07:21:48.824Z,1016.33
2018-07-04T07:22:48.850Z,1016.33
2018-07-04T07:23:48.881Z,1016.36
2018-07-04T07:24:48.905Z,1016.33
2018-07-04T07:25:48.928Z,1016.30
2018-07-04T07:26:48.955Z,1016.35
2018-07-04T07:27:48.974Z,1016.27
2018-07-04T07:28:49.005Z,1016.31
2018-07-04T07:29:49.034Z,1016.31
2018-07-04T07:30:49.056Z,1016.27
2018-07-04T07:31:49.078Z,1016.30
2018-07-04T07:32:49.113Z,1016.28
2018-07-04T07:33:49.164Z,1016.28
2018-07-04T07:34:49.175Z,1016.23
2018-07-04T07:35:49.182Z,1016.22
2018-07-04T07:36:49.218Z,1016.24
2018-07-04T07:37:49.240Z,1016.17
2018-07-04T07:38:49.265Z,1016.19
2018-07-04T07:39:49.301Z,1016.17
2018-07-04T07:40:49.312Z,1016.16
2018-07-04T07:41:49.340Z,1016.17
2018-07-04T07:42:49.370Z,1016.15
2018-07-04T07:43:49.393Z,1016.18
2018-07-04T07:44:49.418Z,1016.15
2018-07-04T07:45:49.441Z,1016.18
2018-07-04T07:46:49.469Z,1016.19
2018-07-04T07:47:49.501Z,1016.17
2018-07-04T07:48:49.563Z,1016.18
2018-07-04T07:49:49.552Z,1016.16
2018-07-04T07:50:49.573Z,1016.17
2018-07-04T07:51:49.606Z,1016.18
2018-07-04T07:52:49.632Z,1016.16
2018-07-04T07:53:49.653Z,1016.13
2018-07-04T07:54:49.680Z,1016.11
2018-07-04T07:55:49.704Z,1016.09
2018-07-04T07:56:49.729Z,1016.13
2018-07-04T07:57:49.756Z,1016.10
2018-07-04T07:58:49.783Z,1016.10
2018-07-04T07:59:49.811Z,1016.10
2018-07-04T08:00:49.837Z,1016.09
2018-07-04T08:01:49.905Z,1016.05
2018-07-04T08:02:49.892Z,1016.07
2018-07-04T08:03:49.907Z,1016.02
2018-07-04T08:04:49.941Z,1016.07
2018-07-04T08:05:49.968Z,1016.03
2018-07-04T08:06:49.990Z,1016.07
2018-07-04T08:07:50.020Z,1016.05
2018-07-04T08:08:50.044Z,1016.08
2018-07-04T08:09:50.062Z,1016.08
2018-07-04T08:10:50.087Z,1016.08
2018-07-04T08:11:50.117Z,1016.08
2018-07-04T08:12:50.353Z,1016.04
2018-07-04T08:13:50.177Z,1016.04
2018-07-04T08:14:50.201Z,1015.98
2018-07-04T08:15:50.222Z,1016.00
2018-07-04T08:16:50.252Z,1015.98
2018-07-04T08:17:50.279Z,1015.98
2018-07-04T08:18:50.354Z,1015.98
2018-07-04T08:19:50.333Z,1015.96
2018-07-04T08:20:50.355Z,1015.98
2018-07-04T08:21:50.377Z,1015.99
2018-07-04T08:22:50.415Z,1015.99
2018-07-04T08:23:50.755Z,1015.96
2018-07-04T08:24:50.458Z,1015.96
2018-07-04T08:25:50.487Z,1015.92
2018-07-04T08:26:50.512Z,1015.95
2018-07-04T08:27:50.539Z,1015.94
2018-07-04T08:28:50.568Z,1015.93
2018-07-04T08:29:50.591Z,1015.95
2018-07-04T08:30:50.619Z,1015.93
2018-07-04T08:31:50.697Z,1015.95
2018-07-04T08:32:50.671Z,1015.97
2018-07-04T08:33:50.691Z,1015.93
2018-07-04T08:34:50.723Z,1015.97
2018-07-04T08:35:50.965Z,1015.96
2018-07-04T08:36:50.778Z,1015.94
2018-07-04T08:37:50.801Z,1015.94
2018-07-04T08:38:50.834Z,1015.92
2018-07-04T08:39:50.856Z,1015.91
2018-07-04T08:40:50.879Z,1015.92
2018-07-04T08:41:50.913Z,1015.91
2018-07-04T08:42:50.933Z,1015.91
2018-07-04T08:43:50.955Z,1015.88
2018-07-04T08:44:50.991Z,1015.88
2018-07-04T08:45:51.017Z,1015.87
2018-07-04T08:46:51.038Z,1015.83
2018-07-04T08:47:51.069Z,1015.91
2018-07-04T08:48:51.095Z,1015.89
2018-07-04T08:49:53.796Z,1015.88
2018-07-04T08:50:51.228Z,1015.87
2018-07-04T08:51:53.797Z,1015.87
2018-07-04T08:52:51.253Z,1015.84
2018-07-04T08:53:51.225Z,1015.88
2018-07-04T08:54:51.248Z,1015.89
2018-07-04T08:55:51.275Z,1015.87
2018-07-04T08:56:51.299Z,1015.84
2018-07-04T08:57:51.333Z,1015.87
2018-07-04T08:58:51.350Z,1015.89
2018-07-04T08:59:51.389Z,1015.89
2018-07-04T09:00:51.405Z,1015.88
2018-07-04T09:01:51.433Z,1015.89
2018-07-04T09:02:51.463Z,1015.88
2018-07-04T09:03:51.491Z,1015.84
2018-07-04T09:04:51.515Z,1015.87
2018-07-04T09:05:51.543Z,1015.81
2018-07-04T09:06:54.186Z,1015.83
2018-07-04T09:07:51.593Z,1015.84
2018-07-04T09:08:51.615Z,1015.85
2018-07-04T09:09:51.656Z,1015.83
2018-07-04T09:10:51.667Z,1015.82
2018-07-04T09:11:51.768Z,1015.84
2018-07-04T09:12:51.733Z,1015.78
2018-07-04T09:13:52.359Z,1015.78
2018-07-04T09:14:51.777Z,1015.78
2018-07-04T09:15:52.004Z,1015.77
2018-07-04T09:16:51.836Z,1015.79
2018-07-04T09:17:51.859Z,1015.82
2018-07-04T09:19:34.429Z,1015.80
2018-07-04T09:20:34.455Z,1015.77
2018-07-04T09:21:34.481Z,1015.77
2018-07-04T09:22:34.546Z,1015.82
2018-07-04T09:23:34.533Z,1015.78
2018-07-04T09:24:34.583Z,1015.77
2018-07-04T09:25:34.593Z,1015.74
2018-07-04T09:26:34.612Z,1015.74
2018-07-04T09:27:34.636Z,1015.75
2018-07-04T09:28:34.663Z,1015.71
2018-07-04T09:29:34.698Z,1015.72
2018-07-04T09:30:34.717Z,1015.72
2018-07-04T09:31:34.747Z,1015.74
2018-07-04T09:32:34.782Z,1015.73
2018-07-04T09:33:34.802Z,1015.68
2018-07-04T09:34:34.825Z,1015.69
2018-07-04T09:35:34.853Z,1015.69
2018-07-04T09:36:34.878Z,1015.68
2018-07-04T09:37:34.907Z,1015.71
2018-07-04T09:38:34.936Z,1015.70
2018-07-04T09:39:34.960Z,1015.71
2018-07-04T09:40:34.986Z,1015.72
2018-07-04T09:41:35.017Z,1015.69
2018-07-04T09:42:35.648Z,1015.66
2018-07-04T09:43:35.065Z,1015.61
2018-07-04T09:44:35.091Z,1015.57
2018-07-04T09:45:35.114Z,1015.57
2018-07-04T09:46:35.147Z,1015.57
2018-07-04T09:47:35.175Z,1015.57
2018-07-04T09:48:35.198Z,1015.58
2018-07-04T09:49:35.226Z,1015.54
2018-07-04T09:50:35.255Z,1015.57
2018-07-04T09:51:35.277Z,1015.63
2018-07-04T09:52:35.309Z,1015.57
2018-07-04T09:53:35.335Z,1015.56
2018-07-04T09:54:35.357Z,1015.55
2018-07-04T09:55:35.391Z,1015.55
2018-07-04T09:56:35.617Z,1015.49
2018-07-04T09:57:35.437Z,1015.53
2018-07-04T09:58:35.465Z,1015.50
2018-07-04T09:59:35.499Z,1015.54
2018-07-04T10:00:35.520Z,1015.53
2018-07-04T10:01:35.544Z,1015.54
2018-07-04T10:02:35.574Z,1015.55
2018-07-04T10:03:35.597Z,1015.59
2018-07-04T10:04:35.625Z,1015.60
2018-07-04T10:05:35.655Z,1015.59
2018-07-04T10:06:35.686Z,1015.55
2018-07-04T10:07:35.715Z,1015.53
2018-07-04T10:08:35.732Z,1015.50
2018-07-04T10:09:35.765Z,1015.50
2018-07-04T10:10:35.793Z,1015.46
2018-07-04T10:11:35.819Z,1015.47
2018-07-04T10:12:35.849Z,1015.45
2018-07-04T10:13:35.871Z,1015.47
2018-07-04T10:14:35.900Z,1015.45
2018-07-04T10:15:35.917Z,1015.42
2018-07-04T10:16:35.947Z,1015.43
2018-07-04T10:17:35.979Z,1015.44
2018-07-04T10:18:36.002Z,1015.41
2018-07-04T10:19:36.026Z,1015.34
2018-07-04T10:20:36.053Z,1015.35
2018-07-04T10:21:36.080Z,1015.38
2018-07-04T10:22:36.110Z,1015.34
2018-07-04T10:23:36.137Z,1015.34
2018-07-04T10:24:36.214Z,1015.40
2018-07-04T10:25:36.190Z,1015.38
2018-07-04T10:26:36.221Z,1015.37
2018-07-04T10:27:36.251Z,1015.36
2018-07-04T10:28:36.278Z,1015.35
2018-07-04T10:29:36.299Z,1015.34
2018-07-04T10:30:36.329Z,1015.34
2018-07-04T10:31:36.357Z,1015.33
2018-07-04T10:32:36.383Z,1015.40
2018-07-04T10:33:36.415Z,1015.39
2018-07-04T10:34:36.439Z,1015.36
2018-07-04T10:35:36.468Z,1015.39
2018-07-04T10:36:36.488Z,1015.34
2018-07-04T10:37:36.530Z,1015.36
2018-07-04T10:38:36.543Z,1015.33
2018-07-04T10:39:36.569Z,1015.30
2018-07-04T10:40:36.602Z,1015.33
2018-07-04T10:41:36.626Z,1015.32
2018-07-04T10:42:36.654Z,1015.31
2018-07-04T10:43:36.678Z,1015.29
2018-07-04T10:45:19.256Z,1015.30
2018-07-04T10:46:21.903Z,1015.31
2018-07-04T10:47:19.305Z,1015.28
2018-07-04T10:48:19.335Z,1015.29
2018-07-04T10:49:19.357Z,1015.29
2018-07-04T10:50:19.393Z,1015.25
2018-07-04T10:51:19.423Z,1015.28
2018-07-04T10:52:19.444Z,1015.27
2018-07-04T10:53:19.471Z,1015.26
2018-07-04T10:54:19.501Z,1015.24
2018-07-04T10:55:19.524Z,1015.23
2018-07-04T10:56:19.553Z,1015.23
2018-07-04T10:57:19.580Z,1015.22
2018-07-04T10:58:19.605Z,1015.23
2018-07-04T10:59:19.633Z,1015.20
2018-07-04T11:00:19.657Z,1015.27
2018-07-04T11:01:19.692Z,1015.24
2018-07-04T11:02:19.715Z,1015.28
2018-07-04T11:03:19.741Z,1015.23
2018-07-04T11:04:19.775Z,1015.26
2018-07-04T11:05:19.797Z,1015.27
2018-07-04T11:06:19.822Z,1015.29
2018-07-04T11:07:19.846Z,1015.33
2018-07-04T11:08:19.879Z,1015.37
2018-07-04T11:09:19.905Z,1015.40
2018-07-04T11:10:19.940Z,1015.52
2018-07-04T11:11:19.994Z,1015.52
2018-07-04T11:12:19.989Z,1015.52
2018-07-04T11:13:20.023Z,1015.56
2018-07-04T11:14:20.055Z,1015.56
2018-07-04T11:15:20.075Z,1015.58
2018-07-04T11:16:20.114Z,1015.57
2018-07-04T11:17:20.137Z,1015.55
2018-07-04T11:18:20.165Z,1015.57
2018-07-04T11:19:20.194Z,1015.61
2018-07-04T11:20:20.227Z,1015.63
2018-07-04T11:21:20.264Z,1015.61
2018-07-04T11:22:20.319Z,1015.63
2018-07-04T11:23:20.326Z,1015.64
2018-07-04T11:24:20.355Z,1015.62
2018-07-04T11:25:20.385Z,1015.63
2018-07-04T11:26:20.431Z,1015.65
2018-07-04T11:27:23.881Z,1015.68
2018-07-04T11:28:21.140Z,1015.71
2018-07-04T11:29:20.516Z,1015.71
2018-07-04T11:30:20.552Z,1015.66
2018-07-04T11:31:20.590Z,1015.69
2018-07-04T11:32:20.620Z,1015.73
2018-07-04T11:33:20.656Z,1015.64
2018-07-04T11:34:20.690Z,1015.66
2018-07-04T11:35:20.721Z,1015.73
2018-07-04T11:36:20.755Z,1015.69
2018-07-04T11:37:20.795Z,1015.68
2018-07-04T11:38:20.829Z,1015.71
2018-07-04T11:39:21.871Z,1015.61
2018-07-04T11:41:20.929Z,1015.59
2018-07-04T11:42:20.971Z,1015.60
2018-07-04T11:43:21.008Z,1015.60
2018-07-04T11:44:21.039Z,1015.60
2018-07-04T11:45:23.696Z,1015.65
2018-07-04T11:46:21.109Z,1015.62
2018-07-04T11:47:21.151Z,1015.62
2018-07-04T11:48:21.186Z,1015.61
2018-07-04T11:49:21.220Z,1015.71
2018-07-04T11:50:21.256Z,1015.75
2018-07-04T11:51:21.299Z,1015.63
2018-07-04T11:52:21.332Z,1015.59
2018-07-04T11:53:21.370Z,1015.65
2018-07-04T11:54:21.407Z,1015.63
2018-07-04T11:55:21.460Z,1015.65
2018-07-04T11:56:21.482Z,1015.69
2018-07-04T11:57:21.515Z,1015.65
2018-07-04T11:58:21.549Z,1015.64
2018-07-04T11:59:21.589Z,1015.71
2018-07-04T12:00:21.628Z,1015.68
2018-07-04T12:01:21.670Z,1015.74
2018-07-04T12:02:21.700Z,1015.69
2018-07-04T12:03:21.742Z,1015.74
2018-07-04T12:04:21.780Z,1015.72
2018-07-04T12:05:21.831Z,1015.73
2018-07-04T12:06:21.849Z,1015.78
2018-07-04T12:07:21.891Z,1015.81
2018-07-04T12:08:21.929Z,1015.70
2018-07-04T12:09:21.961Z,1015.71
2018-07-04T12:10:22.003Z,1015.76
2018-07-04T12:11:22.035Z,1015.78